KLCK/LCK METAR and TAF weather

Enter ICAO airport designator
Station Type Date Time Source
KLCK METAR 2019/05/21 20:35 UTC NOAA

KLCK 212035Z AUTO 06011KT 10SM SCT100 17/05 A3010 RMK AO2 T01740054


Station Type Date Time Source
KLCK Decoded METAR 2019/05/21 20:35 UTC NOAA

Rickenbacker Air National Guard Base, OH, United States (KLCK) 39-49N 082-56W
May 21, 2019 - 04:35 PM EDT / 2019.05.21 2035 UTC
Wind: from the ENE (060 degrees) at 13 MPH (11 KT):0
Visibility: 10 mile(s):0
Sky conditions: partly cloudy
Temperature: 63.3 F (17.4 C)
Dew Point: 41.7 F (5.4 C)
Relative Humidity: 45%
Pressure (altimeter): 30.1 in. Hg (1019 hPa)
ob: KLCK 212035Z AUTO 06011KT 10SM SCT100 17/05 A3010 RMK AO2 T01740054
cycle: 20

Station Type Date Time Source
KLCK TAF 2019/05/21 18:55 UTC NOAA

TAF KLCK 211740Z 2118/2218 09008KT P6SM BKN250
FM221300 13010KT P6SM BKN200
FM221500 16010KT P6SM SCT250

Example: see airport list